• Join FlightAware (Why Join?)
  • Login
  • US Flag 
12:08AM EST


 

Airport Tracker/Info


-or-


 

Live Flight TrackerFlight Track Log ✈ N32PA ✈ 28-Jun-2013 ✈ KVPC - CYQX

Flight Track Log - Related Links

Times and Time Zones

All times are in EDT time to prevent confusion due to time zone crossing. See the N32PA flight status page for this flight to view local times or setup timezone preferences in your user account.

Time Position Orientation Groundspeed Altitude Reporting Facility
EDT Latitude Longitude Course Direction KTS MPH feet Rate Location/Type
05:21PM 34.4061 -84.6783 10° North 438 504 10,400  Level Atlanta Center
05:22PM 34.4836 -84.6361 24° Northeast 339 390 12,500 2,100 Climbing Atlanta Center
05:23PM 34.5694 -84.5939 22° Northeast 333 383 14,700 1,980 Climbing Atlanta Center
05:24PM 34.6572 -84.5514 22° Northeast 333 383 16,500 1,620 Climbing Atlanta Center
05:25PM 34.5227 -84.2202 10° North  Level FlightAware Approximate
05:25PM 34.7556 -84.5014 23° Northeast 338 389 18,000  Level Atlanta Center
05:27PM 34.9333 -84.4061 24° Northeast 363 418 20,900 1,380 Climbing Atlanta Center
05:28PM 35.0356 -84.3508 24° Northeast 369 425 22,300 1,200 Climbing Atlanta Center
05:29PM 35.1358 -84.3003 22° Northeast 379 436 23,400 1,020 Climbing Atlanta Center
05:30PM 35.2361 -84.2497 22° Northeast 384 442 24,400 1,020 Climbing Atlanta Center
05:31PM 35.3386 -84.1942 24° Northeast 391 450 25,500 960 Climbing Atlanta Center
05:32PM 35.4450 -84.1408 22° Northeast 397 457 26,400 900 Climbing Atlanta Center
05:33PM 35.5492 -84.0822 25° Northeast 403 464 27,400 840 Climbing Atlanta Center
05:34PM 35.6556 -84.0261 23° Northeast 403 464 28,100 660 Climbing Atlanta Center
05:35PM 35.7661 -83.9697 22° Northeast 410 472 28,800 420 Climbing Atlanta Center
05:36PM 35.8747 -83.9031 26° Northeast 417 480 29,000 240 Climbing Atlanta Center
05:37PM 35.9850 -83.8361 26° Northeast 423 487 29,300 600 Climbing Atlanta Center
05:38PM 36.0975 -83.7714 25° Northeast 428 493 30,300 900 Climbing Atlanta Center
05:39PM 36.2081 -83.7067 25° Northeast 428 493 31,200 660 Climbing Atlanta Center
05:40PM 36.3244 -83.6289 28° Northeast 422 486 31,700 600 Climbing Atlanta Center
05:41PM 36.4306 -83.5589 28° Northeast 434 499 32,400 480 Climbing Atlanta Center
05:42PM 36.5778 -83.4681 26° Northeast 447 514 33,000 240 Climbing Indianapolis Center
05:43PM 36.7089 -83.3864 27° Northeast 449 517 33,000  Level Indianapolis Center
05:44PM 36.8231 -83.3100 28° Northeast 469 540 33,000  Level Indianapolis Center
05:45PM 36.9411 -83.2350 27° Northeast 471 542 33,000  Level Indianapolis Center
05:46PM 37.0608 -83.1647 25° Northeast 469 540 33,000  Level Indianapolis Center
05:47PM 37.1783 -83.0806 30° Northeast 476 548 33,000  Level Indianapolis Center
05:48PM 37.2678 -82.9567 48° Northeast 507 583 33,000  Level Indianapolis Center
05:50PM 37.3150 -82.7872 71° East 509 586 33,000  Level Indianapolis Center
05:51PM 37.3719 -82.6225 66° East 511 588 33,000  Level Indianapolis Center
05:52PM 37.4272 -82.4597 67° East 505 581 33,000  Level Indianapolis Center
05:53PM 37.5333 -82.3525 39° Northeast 486 559 33,000  Level Indianapolis Center
05:54PM 37.6575 -82.2272 39° Northeast 486 559 33,000  Level Indianapolis Center
05:55PM 37.7644 -82.1181 39° Northeast 492 566 33,000  Level Indianapolis Center
05:56PM 37.8586 -82.0242 38° Northeast 494 568 33,000  Level Indianapolis Center
05:57PM 37.9878 -81.8931 39° Northeast 495 570 33,000  Level Indianapolis Center
05:58PM 38.0942 -81.7825 39° Northeast 494 568 33,000  Level Indianapolis Center
05:59PM 38.2000 -81.6703 40° Northeast 496 571 33,000  Level Indianapolis Center
06:00PM 38.3075 -81.5594 39° Northeast 500 575 33,000  Level Indianapolis Center
06:01PM 38.4122 -81.4442 41° Northeast 502 578 33,000  Level Indianapolis Center
06:02PM 38.5217 -81.3367 38° Northeast 502 578 33,000  Level Indianapolis Center
06:03PM 38.6508 -81.2044 39° Northeast 505 581 33,000  Level Indianapolis Center
06:04PM 38.7556 -81.0864 41° Northeast 507 583 33,000  Level Indianapolis Center
06:05PM 38.8650 -80.9747 38° Northeast 506 582 33,000  Level Indianapolis Center
06:06PM 38.9739 -80.8578 40° Northeast 511 588 33,000  Level Indianapolis Center
06:07PM 39.0828 -80.7389 40° Northeast 514 592 33,000  Level Indianapolis Center
06:08PM 39.1722 -80.5939 51° Northeast 518 596 33,000  Level Indianapolis Center
06:09PM 39.2922 -80.4328 46° Northeast 519 597 33,000  Level Indianapolis Center
06:10PM 39.3906 -80.2964 47° Northeast 521 600 33,000  Level Indianapolis Center
06:11PM 39.4903 -80.1578 47° Northeast 523 602 33,000  Level Indianapolis Center
06:12PM 39.5817 -80.0103 51° Northeast 526 605 33,000  Level Indianapolis Center
06:13PM 39.6817 -79.8703 47° Northeast 528 608 33,000  Level Indianapolis Center
06:14PM 39.7811 -79.7306 47° Northeast 527 606 33,000  Level Indianapolis Center
06:15PM 39.8719 -79.5786 52° Northeast 533 613 33,000  Level Indianapolis Center
06:16PM 39.9639 -79.4283 51° Northeast 530 610 33,000  Level Indianapolis Center
06:17PM 40.0858 -79.2636 46° Northeast 526 605 33,000  Level Indianapolis Center
06:18PM 40.1992 -79.1017 47° Northeast 516 594 33,000  Level Cleveland Center
06:19PM 40.2953 -78.9608 48° Northeast 516 594 33,000  Level Cleveland Center
06:20PM 40.3847 -78.8086 52° Northeast 521 600 33,000  Level Cleveland Center
06:21PM 40.4594 -78.6483 58° Northeast 521 600 33,000  Level Cleveland Center
06:22PM 40.5272 -78.4825 62° Northeast 516 594 33,000  Level Cleveland Center
06:23PM 40.5950 -78.3164 62° Northeast 516 594 33,000  Level Cleveland Center
06:25PM 40.7153 -78.0711 57° Northeast 534 615 33,000  Level New York Center
06:26PM 40.7981 -77.9125 55° Northeast 521 600 33,000  Level New York Center
06:27PM 40.8783 -77.7561 56° Northeast 515 593 33,000  Level New York Center
06:28PM 40.9578 -77.6075 55° Northeast 505 581 33,000  Level New York Center
06:29PM 41.0447 -77.4347 56° Northeast 505 581 33,000  Level New York Center
06:30PM 41.1147 -77.3011 55° Northeast 500 575 33,000  Level New York Center
06:31PM 41.1917 -77.1514 56° Northeast 500 575 33,000  Level New York Center
06:32PM 41.2708 -76.9958 56° Northeast 500 575 33,000  Level New York Center
06:33PM 41.3475 -76.8397 57° Northeast 500 575 33,000  Level New York Center
06:34PM 41.4281 -76.6867 55° Northeast 500 575 33,000  Level New York Center
06:35PM 41.5069 -76.5272 57° Northeast 506 582 33,000  Level New York Center
06:36PM 41.5944 -76.3489 57° Northeast 511 588 33,000  Level New York Center
06:37PM 41.6769 -76.1864 56° Northeast 511 588 33,000  Level New York Center
06:38PM 41.7553 -76.0206 58° Northeast 516 594 33,000  Level New York Center
06:39PM 41.8372 -75.8597 56° Northeast 521 600 33,000  Level New York Center
06:41PM 41.9803 -75.5514 58° Northeast 539 620 33,000  Level Boston Center
06:42PM 42.0558 -75.3844 59° Northeast 528 608 33,000  Level Boston Center
06:43PM 42.1328 -75.2203 58° Northeast 521 600 33,000 -60 Level Boston Center
06:44PM 42.1967 -75.0772 59° Northeast 501 577 32,900 -60 Descending Boston Center
06:45PM 42.2467 -74.8997 69° East 496 571 32,900  Level Boston Center
06:46PM 42.2961 -74.7222 69° East 496 571 32,900  Level Boston Center
06:47PM 42.3764 -74.5647 55° Northeast 501 577 32,900  Level Boston Center
06:48PM 42.4769 -74.4247 46° Northeast 501 577 33,000  Climbing Boston Center
06:49PM 42.5689 -74.2811 49° Northeast 506 582 33,000 120 Level Boston Center
06:50PM 42.6464 -74.1194 57° Northeast 501 577 33,300 360 Climbing Boston Center
06:51PM 42.7175 -73.9519 60° Northeast 507 583 33,800 600 Climbing Boston Center
06:52PM 42.7861 -73.7953 59° Northeast 502 578 34,500 600 Climbing Boston Center
06:53PM 42.8650 -73.6383 56° Northeast 497 572 35,000 180 Climbing Boston Center
06:54PM 42.9333 -73.4750 60° Northeast 497 572 34,900 60 Descending Boston Center
06:55PM 43.0119 -73.3089 57° Northeast 497 572 35,200 600 Climbing Boston Center
06:56PM 43.0839 -73.1481 58° Northeast 503 579 36,100 900 Climbing Boston Center
06:57PM 43.1556 -72.9894 58° Northeast 492 566 37,000 420 Climbing Boston Center
06:58PM 43.2189 -72.8275 62° Northeast 486 559 37,000  Level Boston Center
06:59PM 43.2775 -72.6825 61° Northeast 481 554 37,000  Level Boston Center
07:00PM 43.3611 -72.4886 59° Northeast 481 554 37,000  Level Boston Center
07:01PM 43.4361 -72.3258 58° Northeast 486 559 37,000  Level Boston Center
07:02PM 43.5067 -72.1653 59° Northeast 491 565 37,000  Level Boston Center
07:03PM 43.5792 -71.9986 59° Northeast 491 565 37,000  Level Boston Center
07:04PM 43.6428 -71.8261 63° Northeast 491 565 37,000  Level Boston Center
07:05PM 43.7147 -71.6589 59° Northeast 496 571 37,000  Level Boston Center
07:06PM 43.7783 -71.5086 60° Northeast 501 577 37,000  Level Boston Center
07:07PM 43.8558 -71.3289 59° Northeast 501 577 37,000  Level Boston Center
07:08PM 43.9228 -71.1575 61° Northeast 496 571 37,000  Level Boston Center
07:09PM 43.9894 -70.9858 62° Northeast 496 571 37,000  Level Boston Center
07:10PM 44.0622 -70.8164 59° Northeast 506 582 37,000  Level Boston Center
07:11PM 44.1308 -70.6497 60° Northeast 500 575 37,000  Level Boston Center
07:12PM 44.1986 -70.4767 61° Northeast 500 575 37,000  Level Boston Center
07:13PM 44.2644 -70.3036 62° Northeast 505 581 37,000  Level Boston Center
07:14PM 44.3319 -70.1297 61° Northeast 505 581 37,000  Level Boston Center
07:15PM 44.3992 -69.9617 61° Northeast 505 581 37,000  Level Boston Center
07:16PM 44.4683 -69.7869 61° Northeast 505 581 37,000  Level Boston Center
07:17PM 44.5328 -69.6122 63° Northeast 505 581 37,000 120 Level Boston Center
07:18PM 44.5994 -69.4369 62° Northeast 511 588 37,300 420 Climbing Boston Center
07:19PM 44.6656 -69.2642 62° Northeast 506 582 37,900 540 Climbing Boston Center
07:20PM 44.7203 -69.1297 60° Northeast 501 577 38,400 480 Climbing Boston Center
07:21PM 44.7975 -68.9264 62° Northeast 495 570 38,900 300 Climbing Boston Center
07:22PM 44.8608 -68.7556 62° Northeast 490 564 39,000  Climbing Boston Center
07:23PM 44.9283 -68.5842 61° Northeast 490 564 39,000  Level Boston Center
07:24PM 44.9931 -68.4067 63° Northeast 490 564 39,000  Level Boston Center
07:25PM 45.0575 -68.2286 63° Northeast 495 570 39,000 -60 Level Boston Center
07:26PM 45.1164 -68.0714 62° Northeast 504 580 38,900 -60 Descending Boston Center
07:27PM 45.1803 -67.8928 63° Northeast 504 580 38,900  Level Boston Center
07:28PM 45.2461 -67.7136 62° Northeast 504 580 38,900  Level Boston Center
07:29PM 45.3094 -67.5311 64° Northeast 504 580 38,900 540 Level Boston Center
07:30PM 45.3833 -67.3000 65° Northeast 490 564 40,200 660 Climbing Moncton Center
07:31PM 45.4333 -67.1167 69° East 490 564 40,500 300 Climbing Moncton Center
07:32PM 45.5000 -66.9500 60° Northeast 490 564 40,900 240 Climbing Moncton Center
07:33PM 45.5667 -66.7667 63° Northeast 490 564 41,000  Climbing Moncton Center
07:34PM 45.6167 -66.6000 67° East 500 575 41,000  Level Moncton Center
07:35PM 45.6833 -66.4167 62° Northeast 500 575 41,000  Level Moncton Center
07:36PM 45.7500 -66.2500 60° Northeast 500 575 41,000  Level Moncton Center
07:37PM 45.8167 -66.0500 64° Northeast 500 575 41,000  Level Moncton Center
07:39PM 45.9333 -65.7000 64° Northeast 500 575 41,000  Level Moncton Center
07:40PM 45.9833 -65.5000 70° East 500 575 41,000  Level Moncton Center
07:41PM 46.0500 -65.3333 60° Northeast 500 575 41,000  Level Moncton Center
07:42PM 46.1000 -65.1667 67° East 500 575 41,000  Level Moncton Center
07:43PM 46.1833 -64.9833 57° Northeast 500 575 41,000  Level Moncton Center
07:44PM 46.2333 -64.7833 70° East 500 575 41,000  Level Moncton Center
07:45PM 46.3000 -64.5833 64° Northeast 500 575 41,000  Level Moncton Center
07:46PM 46.3500 -64.4167 66° East 500 575 41,000  Level Moncton Center
07:47PM 46.4167 -64.2333 62° Northeast 500 575 41,000  Level Moncton Center
07:48PM 46.4667 -64.0500 68° East 490 564 41,000  Level Moncton Center
07:49PM 46.5167 -63.8833 66° East 490 564 41,000  Level Moncton Center
07:50PM 46.5833 -63.6833 64° Northeast 490 564 41,000  Level Moncton Center
07:51PM 46.6333 -63.5167 66° East 490 564 41,000  Level Moncton Center
07:52PM 46.6833 -63.3167 70° East 490 564 41,000  Level Moncton Center
07:53PM 46.7333 -63.1500 66° East 490 564 41,000  Level Moncton Center
07:54PM 46.8000 -62.9500 64° Northeast 490 564 41,000  Level Moncton Center
07:55PM 46.8500 -62.7833 66° East 490 564 41,000  Level Moncton Center
07:56PM 46.9000 -62.6167 66° East 490 564 41,000  Level Moncton Center
07:57PM 46.9667 -62.4167 64° Northeast 490 564 41,000  Level Moncton Center
07:58PM 47.0167 -62.2333 68° East 490 564 41,000  Level Moncton Center
07:59PM 47.0667 -62.0333 70° East 490 564 41,000  Level Moncton Center
08:00PM 47.1167 -61.8667 66° East 490 564 41,000  Level Moncton Center
08:01PM 47.1833 -61.6667 64° Northeast 490 564 41,000  Level Moncton Center
08:03PM 47.2833 -61.3167 67° East 490 564 41,000  Level Moncton Center
08:04PM 47.3333 -61.1167 70° East 500 575 41,000  Level Moncton Center
08:05PM 47.3833 -60.9167 70° East 490 564 41,000  Level Moncton Center
08:06PM 47.4167 -60.7333 75° East 500 575 41,000  Level Moncton Center
08:07PM 47.5000 -60.5167 60° Northeast 500 575 41,000  Level Gander Center
08:08PM 47.5500 -60.3500 66° East 500 575 41,000  Level Moncton Center
08:09PM 47.5833 -60.1833 73° East 500 575 41,000  Level Moncton Center
08:10PM 47.6500 -59.9667 65° Northeast 500 575 41,000  Level Moncton Center
08:11PM 47.6833 -59.8000 73° East 500 575 41,000  Level Moncton Center
08:12PM 47.7500 -59.5833 65° Northeast 500 575 41,000  Level Moncton Center
08:13PM 47.8000 -59.4167 66° East 500 575 41,000  Level Moncton Center
08:14PM 47.8500 -59.2000 71° East 500 575 41,000  Level Moncton Center
08:15PM 47.9000 -59.0333 66° East 500 575 41,000  Level Moncton Center
08:16PM 47.9333 -58.8167 77° East 500 575 41,000  Level Moncton Center
08:17PM 47.9833 -58.6167 69° East 500 575 41,000  Level Moncton Center
08:18PM 48.0333 -58.4167 69° East 500 575 41,000  Level Moncton Center
08:19PM 48.0833 -58.1833 72° East 500 575 41,000  Level Gander Center
08:20PM 48.1500 -58.0000 61° Northeast 500 575 41,000  Level Gander Center
08:21PM 48.1833 -57.8333 73° East 500 575 41,000 -360 Level Moncton Center
08:22PM 48.2167 -57.6500 75° East 500 575 40,400 -1,500 Descending Moncton Center
08:23PM 48.2833 -57.4500 63° Northeast 520 598 38,100 -2,100 Descending Moncton Center
08:24PM 48.3333 -57.2333 71° East 510 587 36,200 -1,080 Descending Moncton Center
08:25PM 48.3667 -57.0500 75° East 490 564 36,000 -120 Descending Moncton Center
08:26PM 48.4000 -56.8667 75° East 480 552 36,000 -300 Level Moncton Center
08:27PM 48.4667 -56.6333 67° East 500 575 35,400 -1,200 Descending Moncton Center
08:28PM 48.5000 -56.4500 75° East 510 587 33,600 -2,340 Descending Moncton Center
08:29PM 48.5500 -56.2667 68° East 490 564 30,800 -2,940 Descending Moncton Center
08:30PM 48.6333 -56.0500 60° Northeast 480 552 27,100 -3,120 Descending Gander Center
08:31PM 48.6833 -55.8833 66° East 470 541 24,000 -3,000 Descending Gander Center
08:32PM 48.7500 -55.7000 61° Northeast 460 529 21,100 -2,760 Descending Gander Center
08:33PM 48.7833 -55.5500 71° East 440 506 18,500 -2,400 Descending Gander Center
08:34PM 48.8333 -55.3833 65° Northeast 410 472 16,300 -2,460 Descending Gander Center
08:35PM 48.8667 -55.2333 71° East 370 426 13,600 -3,060 Descending Gander Center
08:36PM 48.9167 -55.1000 60° Northeast 360 414 10,200 -2,940 Descending Gander Center
08:37PM 48.9667 -54.9833 57° Northeast 320 368 7,800 -3,060 Descending Gander Center
08:38PM 48.9833 -54.8833 76° East 280 322 4,100 -2,760 Descending Gander Center
08:39PM 49.0000 -54.8000 73° East 220 253 2,300 -960 Descending Gander Center
08:40PM 48.9833 -54.7333 111° Southeast 180 207 2,200 -60 Descending Gander Center
08:41PM 48.9667 -54.6833 117° Southeast 150 173 2,200 -300 Level Gander Center
08:42PM 48.9500 -54.6000 107° East 140 161 1,600 -720 Descending Gander Center
08:43PM 48.9500 -54.5500 90° East 130 150 800 -600 Descending Gander Center
08:44PM 48.9333 -54.5167 127° Southeast 120 138 500 -300 Descending Gander Center